Time;durP1;ratioP1;P1;durP2;ratioP2;P2;SDS_P1;SDS_P2;PMS_P1;PMS_P2;Temp;Humidity;BMP_temperature;BMP_pressure;BME280_temperature;BME280_humidity;BME280_pressure;Samples;Min_cycle;Max_cycle;Signal;HPM_P1;HPM_P2
2021/11/20 00:01:50;;;;;;;19.10;11.32;;;8.90;99.90;;;;;;5021936;28;20252;-81
2021/11/20 00:04:17;;;;;;;18.65;12.45;;;8.90;99.90;;;;;;5021539;28;20621;-81
2021/11/20 00:06:46;;;;;;;20.23;11.45;;;9.00;99.90;;;;;;5021207;28;20209;-81
2021/11/20 00:09:18;;;;;;;18.80;12.10;;;9.00;99.90;;;;;;5022073;28;20223;-81
2021/11/20 00:11:47;;;;;;;20.33;12.75;;;8.90;99.90;;;;;;5035681;28;20199;-80
2021/11/20 00:14:15;;;;;;;17.33;11.35;;;8.90;99.90;;;;;;5027832;28;20260;-81
2021/11/20 00:16:44;;;;;;;17.10;11.23;;;8.80;99.90;;;;;;5025061;28;20276;-81
2021/11/20 00:19:11;;;;;;;16.30;10.70;;;8.90;99.90;;;;;;5023415;28;20213;-81
2021/11/20 00:21:42;;;;;;;18.45;12.98;;;8.80;99.90;;;;;;5021488;28;20218;-81
2021/11/20 00:24:20;;;;;;;18.45;11.45;;;8.90;99.90;;;;;;5029076;28;20228;-80
2021/11/20 00:26:48;;;;;;;19.77;11.90;;;8.90;99.90;;;;;;5028246;28;20204;-80
2021/11/20 00:29:26;;;;;;;19.60;12.10;;;8.90;99.90;;;;;;5021304;28;20236;-81
2021/11/20 00:31:56;;;;;;;16.92;11.48;;;8.80;99.90;;;;;;5020976;28;20190;-81
2021/11/20 00:34:27;;;;;;;16.63;10.93;;;8.90;99.90;;;;;;5019643;28;20209;-81
2021/11/20 00:36:54;;;;;;;17.70;11.30;;;8.80;99.90;;;;;;5020290;28;20228;-81
2021/11/20 00:39:25;;;;;;;17.55;11.45;;;8.90;99.90;;;;;;5025282;28;20204;-81
2021/11/20 00:41:53;;;;;;;22.10;11.93;;;8.90;99.90;;;;;;5019419;28;20192;-81
2021/11/20 00:44:21;;;;;;;19.20;11.70;;;8.80;99.90;;;;;;5020985;28;20318;-81
2021/11/20 00:46:49;;;;;;;19.33;11.90;;;8.90;99.90;;;;;;5031928;28;20213;-80
2021/11/20 00:49:16;;;;;;;21.67;13.15;;;8.90;99.90;;;;;;5021966;28;20241;-81
2021/11/20 00:51:43;;;;;;;21.77;12.70;;;8.80;99.90;;;;;;5018248;28;20208;-81
2021/11/20 00:54:11;;;;;;;18.42;12.15;;;8.80;99.90;;;;;;5018199;28;20573;-81
2021/11/20 00:56:39;;;;;;;16.20;11.35;;;8.80;99.90;;;;;;5028248;28;20212;-81
2021/11/20 00:59:06;;;;;;;15.70;10.68;;;8.90;99.90;;;;;;5019521;28;20683;-81
2021/11/20 01:01:38;;;;;;;16.17;11.13;;;8.60;99.90;;;;;;5020673;28;20558;-81
2021/11/20 01:04:06;;;;;;;20.80;13.02;;;8.90;99.90;;;;;;5018430;28;20237;-81
2021/11/20 01:06:33;;;;;;;18.85;11.45;;;8.80;99.90;;;;;;5027734;28;20220;-81
2021/11/20 01:09:02;;;;;;;21.13;11.95;;;8.80;99.90;;;;;;5024053;28;20190;-81
2021/11/20 01:11:31;;;;;;;18.27;11.10;;;8.80;99.90;;;;;;5033276;28;20600;-81
2021/11/20 01:14:02;;;;;;;19.40;12.73;;;8.80;99.90;;;;;;5034790;28;20236;-80
2021/11/20 01:16:30;;;;;;;18.17;11.73;;;8.90;99.90;;;;;;5029125;28;20216;-81
2021/11/20 01:18:59;;;;;;;21.63;12.85;;;8.90;99.90;;;;;;5031771;28;20277;-81
2021/11/20 01:21:27;;;;;;;18.90;10.93;;;8.80;99.90;;;;;;5020914;28;20209;-81
2021/11/20 01:23:54;;;;;;;18.38;12.52;;;8.90;99.90;;;;;;5018633;28;20623;-81
2021/11/20 01:26:23;;;;;;;18.88;11.52;;;8.80;99.90;;;;;;5019647;28;20211;-81
2021/11/20 01:28:56;;;;;;;18.58;12.32;;;8.80;99.90;;;;;;5020539;28;20227;-82
2021/11/20 01:31:27;;;;;;;17.40;11.80;;;8.80;99.90;;;;;;5020539;28;20194;-82
2021/11/20 01:33:55;;;;;;;20.08;12.20;;;8.90;99.90;;;;;;5020276;28;20225;-82
2021/11/20 01:36:24;;;;;;;19.83;12.10;;;8.80;99.90;;;;;;5020169;28;20278;-82
2021/11/20 01:38:53;;;;;;;21.77;13.30;;;8.70;99.90;;;;;;5020250;28;20239;-81
2021/11/20 01:41:22;;;;;;;18.42;12.32;;;8.70;99.90;;;;;;5020710;28;20208;-81
2021/11/20 01:43:51;;;;;;;20.15;12.65;;;8.70;99.90;;;;;;5021128;28;20336;-82
2021/11/20 01:46:21;;;;;;;21.63;13.80;;;8.40;99.90;;;;;;5020526;28;20239;-81
2021/11/20 01:49:03;;;;;;;19.48;12.90;;;8.60;99.90;;;;;;5020813;28;20312;-83
2021/11/20 01:51:33;;;;;;;19.83;13.05;;;8.60;99.90;;;;;;5024402;28;20483;-82
2021/11/20 01:54:10;;;;;;;19.52;12.63;;;8.60;99.90;;;;;;5020529;28;20264;-80
2021/11/20 01:56:45;;;;;;;18.00;11.65;;;8.60;99.90;;;;;;5021026;28;20253;-80
2021/11/20 01:59:19;;;;;;;19.00;12.90;;;8.60;99.90;;;;;;5022425;28;20264;-81
2021/11/20 02:01:50;;;;;;;20.65;12.90;;;8.70;99.90;;;;;;5022348;28;20522;-81
2021/11/20 02:04:34;;;;;;;18.50;11.88;;;8.80;99.90;;;;;;5020739;28;20709;-82
2021/11/20 02:07:15;;;;;;;18.83;11.88;;;8.70;99.90;;;;;;5040669;23;20232;-78
2021/11/20 02:09:47;;;;;;;18.45;13.25;;;8.70;99.90;;;;;;5017166;28;20202;-79
2021/11/20 02:12:19;;;;;;;17.90;12.27;;;8.70;99.90;;;;;;5017848;28;20199;-78
2021/11/20 02:14:47;;;;;;;19.50;12.02;;;8.60;99.90;;;;;;5017131;28;20195;-79
2021/11/20 02:17:18;;;;;;;23.15;13.10;;;8.70;99.90;;;;;;5022699;28;20248;-79
2021/11/20 02:19:50;;;;;;;16.50;12.57;;;8.70;99.90;;;;;;5018735;28;20197;-79
2021/11/20 02:22:27;;;;;;;18.95;12.85;;;8.70;99.90;;;;;;5017773;28;20228;-79
2021/11/20 02:24:53;;;;;;;20.80;12.70;;;8.80;99.90;;;;;;5017800;28;20195;-78
2021/11/20 02:27:22;;;;;;;17.80;11.75;;;8.80;99.90;;;;;;5018715;28;20734;-80
2021/11/20 02:29:48;;;;;;;16.70;12.05;;;8.90;99.90;;;;;;5018302;28;20605;-79
2021/11/20 02:32:20;;;;;;;19.48;12.73;;;8.90;99.90;;;;;;5017585;28;20205;-79
2021/11/20 02:34:48;;;;;;;16.67;12.32;;;8.80;99.90;;;;;;5017664;28;20582;-79
2021/11/20 02:37:17;;;;;;;15.55;11.05;;;8.70;99.90;;;;;;5035143;28;20285;-79
2021/11/20 02:39:46;;;;;;;17.33;11.25;;;8.80;99.90;;;;;;5028237;28;20209;-79
2021/11/20 02:42:16;;;;;;;17.27;11.35;;;8.80;99.90;;;;;;5019122;28;20209;-79
2021/11/20 02:44:44;;;;;;;18.23;11.27;;;8.80;99.90;;;;;;5018263;28;20213;-79
2021/11/20 02:47:23;;;;;;;17.45;11.65;;;8.90;99.90;;;;;;5018240;28;20224;-80
2021/11/20 02:49:50;;;;;;;18.27;12.48;;;8.80;99.90;;;;;;5018088;28;20659;-79
2021/11/20 02:52:17;;;;;;;20.60;13.73;;;8.80;99.90;;;;;;5018593;28;20270;-79
2021/11/20 02:54:44;;;;;;;18.00;12.48;;;8.80;99.90;;;;;;5017233;28;20215;-79
2021/11/20 02:57:13;;;;;;;20.40;13.30;;;8.80;99.90;;;;;;5017553;28;20226;-78
2021/11/20 02:59:41;;;;;;;20.00;12.00;;;8.80;99.90;;;;;;5017393;28;20212;-79
2021/11/20 03:02:08;;;;;;;19.63;12.40;;;8.80;99.90;;;;;;5017066;28;20349;-78
2021/11/20 03:04:37;;;;;;;17.50;11.70;;;8.90;99.90;;;;;;5016385;28;20228;-80
2021/11/20 03:07:04;;;;;;;18.80;12.05;;;8.90;99.90;;;;;;5018854;28;20236;-80
2021/11/20 03:09:33;;;;;;;19.08;12.45;;;8.90;99.90;;;;;;5018839;28;20205;-79
2021/11/20 03:12:01;;;;;;;19.17;11.82;;;8.90;99.90;;;;;;5016686;28;20212;-78
2021/11/20 03:14:28;;;;;;;17.70;12.00;;;8.90;99.90;;;;;;5016774;28;20205;-78
2021/11/20 03:16:57;;;;;;;19.20;12.95;;;9.00;99.90;;;;;;5016453;28;20609;-79
2021/11/20 03:19:27;;;;;;;17.38;11.30;;;9.00;99.90;;;;;;5017510;28;20248;-80
2021/11/20 03:21:58;;;;;;;20.10;12.65;;;9.00;99.90;;;;;;5016073;28;20240;-79
2021/11/20 03:24:27;;;;;;;19.90;13.07;;;8.90;99.90;;;;;;5020354;28;20223;-79
2021/11/20 03:26:57;;;;;;;19.67;12.38;;;9.00;99.90;;;;;;5016456;28;20229;-80
2021/11/20 03:29:25;;;;;;;20.58;13.63;;;8.90;99.90;;;;;;5016027;28;20263;-78
2021/11/20 03:31:52;;;;;;;18.20;11.50;;;8.80;99.90;;;;;;5016564;28;20324;-78
2021/11/20 03:34:20;;;;;;;20.67;13.20;;;8.90;99.90;;;;;;5015960;28;20689;-79
2021/11/20 03:36:47;;;;;;;20.52;12.60;;;8.80;99.90;;;;;;5015331;28;20329;-78
2021/11/20 03:39:15;;;;;;;22.05;14.10;;;8.80;99.90;;;;;;5015945;28;20709;-78
2021/11/20 03:41:42;;;;;;;18.38;12.15;;;8.80;99.90;;;;;;5015481;28;20219;-79
2021/11/20 03:44:10;;;;;;;20.13;13.68;;;8.80;99.90;;;;;;5016017;28;20220;-78
2021/11/20 03:46:39;;;;;;;20.65;13.55;;;8.80;99.90;;;;;;5015953;28;20230;-80
2021/11/20 03:49:06;;;;;;;19.08;11.85;;;8.80;99.90;;;;;;5015717;28;20216;-79
2021/11/20 03:51:34;;;;;;;20.33;13.02;;;8.80;99.90;;;;;;5015491;28;20586;-79
2021/11/20 03:54:01;;;;;;;20.63;12.98;;;8.80;99.90;;;;;;5016544;28;20212;-79
2021/11/20 03:56:31;;;;;;;21.10;12.85;;;8.80;99.90;;;;;;5018642;28;20212;-79
2021/11/20 03:58:59;;;;;;;18.40;12.10;;;8.70;99.90;;;;;;5019872;28;20216;-78
2021/11/20 04:01:27;;;;;;;22.55;12.88;;;8.70;99.90;;;;;;5020829;28;20219;-79
2021/11/20 04:03:55;;;;;;;23.83;13.70;;;8.70;99.90;;;;;;5022443;28;20235;-78
2021/11/20 04:06:22;;;;;;;23.10;13.82;;;8.80;99.90;;;;;;5019797;28;20239;-79
2021/11/20 04:08:51;;;;;;;24.83;14.88;;;8.90;99.90;;;;;;5019698;28;20201;-79
2021/11/20 04:11:21;;;;;;;22.10;13.20;;;8.90;99.90;;;;;;5019723;28;20216;-79
2021/11/20 04:13:49;;;;;;;20.17;11.73;;;8.90;99.90;;;;;;5020517;28;20204;-79
2021/11/20 04:16:18;;;;;;;20.27;12.55;;;9.00;99.90;;;;;;5019760;28;20219;-79
2021/11/20 04:18:45;;;;;;;16.42;10.63;;;9.00;99.90;;;;;;5020149;28;20218;-79
2021/11/20 04:21:13;;;;;;;18.67;11.68;;;9.10;99.90;;;;;;5019804;28;20271;-79
2021/11/20 04:23:40;;;;;;;19.13;12.75;;;9.10;99.90;;;;;;5019658;28;20568;-79
2021/11/20 04:26:08;;;;;;;24.20;13.82;;;8.90;99.90;;;;;;5019534;28;20213;-79
2021/11/20 04:28:34;;;;;;;23.83;13.27;;;8.90;99.90;;;;;;5023326;28;20573;-80
2021/11/20 04:31:03;;;;;;;21.60;13.50;;;8.90;99.90;;;;;;5024026;28;20212;-79
2021/11/20 04:33:30;;;;;;;21.30;13.00;;;8.90;99.90;;;;;;5026642;28;20201;-78
2021/11/20 04:35:57;;;;;;;24.23;14.43;;;8.90;99.90;;;;;;5027224;28;20227;-79
2021/11/20 04:38:24;;;;;;;19.85;12.82;;;8.90;99.90;;;;;;5021542;28;20256;-79
2021/11/20 04:40:51;;;;;;;21.25;13.57;;;9.00;99.90;;;;;;5020557;28;20244;-79
2021/11/20 04:43:18;;;;;;;17.63;12.55;;;9.00;99.90;;;;;;5033696;28;20221;-79
2021/11/20 04:45:47;;;;;;;18.40;11.00;;;9.00;99.90;;;;;;5029041;28;20288;-79
2021/11/20 04:48:16;;;;;;;18.58;11.15;;;9.00;99.90;;;;;;5019982;28;20320;-78
2021/11/20 04:50:43;;;;;;;24.45;12.90;;;9.00;99.90;;;;;;5019498;28;20206;-79
2021/11/20 04:53:09;;;;;;;19.60;11.88;;;9.00;99.90;;;;;;5024200;28;20262;-79
2021/11/20 04:55:37;;;;;;;19.92;11.65;;;9.00;99.90;;;;;;5036043;28;20210;-78
2021/11/20 04:58:04;;;;;;;20.00;11.52;;;9.00;99.90;;;;;;5038028;28;20233;-79
2021/11/20 05:00:35;;;;;;;17.55;10.98;;;9.20;99.90;;;;;;5025645;28;20231;-79
2021/11/20 05:03:05;;;;;;;20.30;12.30;;;9.20;99.90;;;;;;5020640;28;20195;-79
2021/11/20 05:05:34;;;;;;;19.08;11.00;;;9.10;99.90;;;;;;5020264;28;20278;-80
2021/11/20 05:08:02;;;;;;;19.48;11.25;;;9.20;99.90;;;;;;5018728;28;20244;-80
2021/11/20 05:10:28;;;;;;;15.30;10.43;;;9.20;99.90;;;;;;5020172;28;20213;-79
2021/11/20 05:12:55;;;;;;;17.50;10.20;;;9.20;99.90;;;;;;5021013;28;20464;-79
2021/11/20 05:15:23;;;;;;;19.85;10.10;;;9.30;99.90;;;;;;5018868;28;20205;-79
2021/11/20 05:17:50;;;;;;;16.38;10.50;;;9.30;99.90;;;;;;5019289;28;20232;-79
2021/11/20 05:20:18;;;;;;;18.88;11.13;;;9.40;99.90;;;;;;5019531;28;20209;-79
2021/11/20 05:22:47;;;;;;;17.15;10.40;;;9.40;99.90;;;;;;5019684;28;20317;-78
2021/11/20 05:25:18;;;;;;;17.55;10.48;;;9.40;99.90;;;;;;5019675;28;20668;-80
2021/11/20 05:27:45;;;;;;;14.03;9.53;;;9.30;99.90;;;;;;5022040;28;20233;-79
2021/11/20 05:30:16;;;;;;;16.08;9.90;;;9.50;99.90;;;;;;5024761;28;20455;-78
2021/11/20 05:32:43;;;;;;;14.32;8.93;;;9.60;99.90;;;;;;5019201;28;20202;-79
2021/11/20 05:35:11;;;;;;;15.80;9.00;;;9.50;99.90;;;;;;5017632;28;20210;-79
2021/11/20 05:37:38;;;;;;;14.45;8.60;;;9.30;99.90;;;;;;5018296;28;20234;-79
2021/11/20 05:40:10;;;;;;;15.50;8.87;;;9.40;99.90;;;;;;5017936;28;20228;-79
2021/11/20 05:42:38;;;;;;;15.27;10.00;;;9.50;99.90;;;;;;5019260;28;21023;-79
2021/11/20 05:45:06;;;;;;;16.40;9.65;;;9.40;99.90;;;;;;5024378;28;20241;-80
2021/11/20 05:47:33;;;;;;;17.15;10.50;;;9.30;99.90;;;;;;5018132;28;20293;-80
2021/11/20 05:50:00;;;;;;;13.85;9.82;;;9.30;99.90;;;;;;5018608;28;20210;-79
2021/11/20 05:52:27;;;;;;;16.63;10.15;;;9.40;99.90;;;;;;5019426;28;20209;-79
2021/11/20 05:54:54;;;;;;;14.07;9.70;;;9.40;99.90;;;;;;5018092;28;20202;-79
2021/11/20 05:57:22;;;;;;;17.35;9.70;;;9.20;99.90;;;;;;5017915;28;20224;-79
2021/11/20 05:59:49;;;;;;;17.48;9.60;;;9.10;99.90;;;;;;5018352;28;20210;-79
2021/11/20 06:02:16;;;;;;;14.77;9.77;;;9.20;99.90;;;;;;5018313;28;20236;-80
2021/11/20 06:04:44;;;;;;;16.95;10.10;;;9.10;99.90;;;;;;5017776;28;20587;-79
2021/11/20 06:07:11;;;;;;;12.85;8.75;;;9.00;99.90;;;;;;5018066;28;20314;-80
2021/11/20 06:09:38;;;;;;;16.55;9.60;;;9.00;99.90;;;;;;5017995;28;20216;-80
2021/11/20 06:12:05;;;;;;;15.13;9.45;;;9.30;99.90;;;;;;5022385;28;20297;-79
2021/11/20 06:14:33;;;;;;;13.30;8.50;;;9.30;99.90;;;;;;5021302;28;20208;-79
2021/11/20 06:17:01;;;;;;;13.77;9.07;;;9.10;99.90;;;;;;5018799;28;20477;-79
2021/11/20 06:19:28;;;;;;;14.73;8.70;;;9.20;99.90;;;;;;5018742;28;20216;-79
2021/11/20 06:21:55;;;;;;;16.65;9.77;;;9.30;99.90;;;;;;5017735;28;20627;-79
2021/11/20 06:24:22;;;;;;;15.02;9.68;;;9.40;99.90;;;;;;5019131;28;20229;-78
2021/11/20 06:26:50;;;;;;;14.75;9.95;;;9.20;99.90;;;;;;5017888;28;20226;-79
2021/11/20 06:29:17;;;;;;;15.48;9.85;;;9.10;99.90;;;;;;5021433;28;20212;-77
2021/11/20 06:31:47;;;;;;;13.48;8.55;;;9.00;99.90;;;;;;5018670;28;20594;-79
2021/11/20 06:34:14;;;;;;;15.30;9.23;;;8.80;99.90;;;;;;5018437;28;20205;-78
2021/11/20 06:36:41;;;;;;;14.48;9.38;;;8.80;99.90;;;;;;5018031;28;20224;-80
2021/11/20 06:39:08;;;;;;;18.83;9.75;;;8.80;99.90;;;;;;5021026;28;20221;-80
2021/11/20 06:41:35;;;;;;;15.18;9.32;;;8.80;99.90;;;;;;5019334;28;20206;-80
2021/11/20 06:44:02;;;;;;;14.30;9.25;;;8.80;99.90;;;;;;5020738;28;20225;-78
2021/11/20 06:46:28;;;;;;;14.00;9.10;;;9.20;99.90;;;;;;5021000;28;20214;-79
2021/11/20 06:48:57;;;;;;;13.77;8.55;;;9.20;99.90;;;;;;5031141;28;20444;-78
2021/11/20 06:51:24;;;;;;;13.82;8.40;;;9.10;99.90;;;;;;5035185;28;20216;-79
2021/11/20 06:53:50;;;;;;;15.85;9.70;;;9.10;99.90;;;;;;5032389;28;20209;-80
2021/11/20 06:56:27;;;;;;;14.18;9.32;;;9.00;99.90;;;;;;5033200;28;20213;-78
2021/11/20 06:59:09;;;;;;;16.13;9.40;;;9.00;99.90;;;;;;5031526;28;20209;-78
2021/11/20 07:01:36;;;;;;;14.68;9.18;;;9.00;99.90;;;;;;5032059;28;20189;-79
2021/11/20 07:04:11;;;;;;;15.27;9.40;;;9.10;99.90;;;;;;5032809;28;20248;-80
2021/11/20 07:06:41;;;;;;;14.90;9.35;;;9.20;99.90;;;;;;5031973;28;20279;-79
2021/11/20 07:09:08;;;;;;;16.48;10.50;;;9.20;99.90;;;;;;5033130;28;20257;-78
2021/11/20 07:11:35;;;;;;;21.23;10.98;;;9.20;99.90;;;;;;5033224;28;20205;-79
2021/11/20 07:14:02;;;;;;;14.10;9.85;;;9.10;99.90;;;;;;5031125;28;20215;-77
2021/11/20 07:16:30;;;;;;;15.82;9.90;;;9.10;99.90;;;;;;5018778;28;20204;-77
2021/11/20 07:18:57;;;;;;;14.57;9.75;;;9.00;99.90;;;;;;5031189;28;20206;-78
2021/11/20 07:21:25;;;;;;;14.63;10.18;;;9.10;99.90;;;;;;5033860;28;20197;-79
2021/11/20 07:23:53;;;;;;;15.93;9.38;;;9.30;99.90;;;;;;5034509;28;20612;-78
2021/11/20 07:26:20;;;;;;;17.48;11.27;;;9.30;99.90;;;;;;5032947;28;20213;-77
2021/11/20 07:28:47;;;;;;;15.82;10.75;;;9.30;99.90;;;;;;5030045;28;20644;-79
2021/11/20 07:31:14;;;;;;;15.65;9.70;;;9.40;99.90;;;;;;5024468;28;20204;-79
2021/11/20 07:33:40;;;;;;;16.60;11.35;;;9.30;99.90;;;;;;5022788;28;20225;-80
2021/11/20 07:36:11;;;;;;;17.17;10.18;;;9.20;99.90;;;;;;5027852;28;20241;-80
2021/11/20 07:38:42;;;;;;;15.07;10.63;;;9.20;99.90;;;;;;5025263;28;20236;-79
2021/11/20 07:41:10;;;;;;;18.60;10.18;;;9.20;99.90;;;;;;5023305;28;20193;-79
2021/11/20 07:43:37;;;;;;;13.95;9.70;;;9.30;99.90;;;;;;5022258;28;20297;-80
2021/11/20 07:46:07;;;;;;;16.85;10.60;;;9.20;99.90;;;;;;5021121;28;20231;-79
2021/11/20 07:48:36;;;;;;;14.10;9.70;;;9.20;99.90;;;;;;5022038;28;20252;-79
2021/11/20 07:51:04;;;;;;;17.63;11.02;;;9.20;99.90;;;;;;5024022;28;20758;-79
2021/11/20 07:53:31;;;;;;;17.35;10.75;;;9.20;99.90;;;;;;5027622;28;20561;-80
2021/11/20 07:55:59;;;;;;;15.77;10.77;;;9.30;99.90;;;;;;5027155;28;20205;-78
2021/11/20 07:58:27;;;;;;;16.35;9.98;;;9.30;99.90;;;;;;5029101;28;20559;-80
2021/11/20 08:00:54;;;;;;;17.42;11.18;;;9.40;99.90;;;;;;5030308;28;20263;-80
2021/11/20 08:03:21;;;;;;;16.33;10.70;;;9.20;99.90;;;;;;5020297;28;20656;-78
2021/11/20 08:05:49;;;;;;;17.40;11.03;;;9.40;99.90;;;;;;5029806;28;20217;-79
2021/11/20 08:08:19;;;;;;;16.67;9.80;;;9.40;99.90;;;;;;5051263;23;20507;-79
2021/11/20 08:10:46;;;;;;;18.97;12.63;;;9.50;99.90;;;;;;5019169;28;20245;-78
2021/11/20 08:13:15;;;;;;;18.98;10.38;;;9.60;99.90;;;;;;5018790;28;20802;-78
2021/11/20 08:15:42;;;;;;;16.33;10.05;;;9.80;99.90;;;;;;5018155;28;20297;-77
2021/11/20 08:18:09;;;;;;;14.00;9.50;;;10.00;99.90;;;;;;5020698;28;20317;-77
2021/11/20 08:20:38;;;;;;;17.52;11.00;;;10.00;99.90;;;;;;5022744;28;20264;-78
2021/11/20 08:23:09;;;;;;;18.23;11.13;;;9.70;99.90;;;;;;5021820;28;20293;-78
2021/11/20 08:25:37;;;;;;;14.23;10.38;;;9.60;99.90;;;;;;5021375;28;20495;-80
2021/11/20 08:28:06;;;;;;;18.13;11.63;;;9.60;99.90;;;;;;5019170;28;20234;-78
2021/11/20 08:30:35;;;;;;;18.23;11.10;;;9.50;99.90;;;;;;5019784;28;20803;-79
2021/11/20 08:33:02;;;;;;;17.97;10.73;;;9.60;99.90;;;;;;5019465;28;20460;-79
2021/11/20 08:35:31;;;;;;;15.50;9.55;;;9.50;99.90;;;;;;5020793;28;20968;-78
2021/11/20 08:37:59;;;;;;;13.73;9.77;;;9.40;99.90;;;;;;5019518;28;20628;-79
2021/11/20 08:40:28;;;;;;;13.43;9.50;;;9.30;99.90;;;;;;5019329;28;20537;-79
2021/11/20 08:42:55;;;;;;;19.08;9.38;;;9.30;99.90;;;;;;5018508;28;20610;-78
2021/11/20 08:45:24;;;;;;;15.68;10.68;;;9.20;99.90;;;;;;5021268;28;20289;-78
2021/11/20 08:47:53;;;;;;;15.63;9.45;;;9.20;99.90;;;;;;5018393;28;20765;-78
2021/11/20 08:50:23;;;;;;;17.33;9.95;;;9.10;99.90;;;;;;5019752;28;20209;-81
2021/11/20 08:52:50;;;;;;;14.02;8.75;;;9.10;99.90;;;;;;5019424;28;20702;-79
2021/11/20 08:55:17;;;;;;;14.23;9.88;;;9.20;99.90;;;;;;5019151;28;20656;-78
2021/11/20 08:57:45;;;;;;;12.30;9.50;;;9.30;99.90;;;;;;5018478;28;20237;-78
2021/11/20 09:00:15;;;;;;;13.57;9.20;;;9.40;99.90;;;;;;5018009;28;20675;-79
2021/11/20 09:02:46;;;;;;;13.45;9.23;;;9.40;99.90;;;;;;5018408;28;20457;-79
2021/11/20 09:05:20;;;;;;;13.20;8.32;;;9.30;99.90;;;;;;5018781;28;20218;-81
2021/11/20 09:07:51;;;;;;;14.13;8.93;;;9.30;99.90;;;;;;5019903;28;20237;-83
2021/11/20 09:10:27;;;;;;;14.00;9.70;;;9.20;99.90;;;;;;5021501;28;20215;-80
2021/11/20 09:13:08;;;;;;;13.65;8.68;;;9.20;99.90;;;;;;5020689;28;20220;-80
2021/11/20 09:15:38;;;;;;;13.15;7.88;;;9.10;99.90;;;;;;5021087;28;20196;-80
2021/11/20 09:18:05;;;;;;;13.73;8.87;;;9.20;99.90;;;;;;5021080;28;20237;-79
2021/11/20 09:20:34;;;;;;;15.95;9.35;;;9.30;99.90;;;;;;5019614;28;20436;-79
2021/11/20 09:23:01;;;;;;;15.95;9.90;;;9.30;99.90;;;;;;5018506;28;20212;-78
2021/11/20 09:25:30;;;;;;;14.57;9.35;;;9.30;99.90;;;;;;5018860;28;20228;-79
2021/11/20 09:27:57;;;;;;;13.93;9.80;;;9.20;99.90;;;;;;5017390;28;20232;-77
2021/11/20 09:30:27;;;;;;;16.55;9.80;;;9.20;99.90;;;;;;5016965;28;20213;-79
2021/11/20 09:32:54;;;;;;;14.15;9.82;;;9.20;99.90;;;;;;5016502;28;20206;-77
2021/11/20 09:35:21;;;;;;;15.87;9.40;;;9.20;99.90;;;;;;5016979;28;20210;-77
2021/11/20 09:37:49;;;;;;;19.20;10.00;;;9.30;99.90;;;;;;5020286;28;20486;-79
2021/11/20 09:40:17;;;;;;;16.48;10.63;;;9.50;99.90;;;;;;5019147;28;20212;-80
2021/11/20 09:42:47;;;;;;;13.77;9.13;;;9.50;99.90;;;;;;5019317;28;20221;-79
2021/11/20 09:45:16;;;;;;;13.85;9.50;;;9.60;99.90;;;;;;5018389;28;20496;-77
2021/11/20 09:47:48;;;;;;;14.55;9.55;;;9.60;99.90;;;;;;5018342;28;20232;-78
2021/11/20 09:50:18;;;;;;;16.90;9.20;;;9.50;99.90;;;;;;5018475;28;20199;-78
2021/11/20 09:52:46;;;;;;;12.10;8.38;;;9.50;99.90;;;;;;5018267;28;20448;-79
2021/11/20 09:55:19;;;;;;;11.80;7.07;;;9.50;99.90;;;;;;5017182;28;20680;-78
2021/11/20 09:57:49;;;;;;;14.70;6.93;;;9.60;99.90;;;;;;5018064;28;20235;-78
2021/11/20 10:01:02;;;;;;;12.47;6.77;;;9.60;99.90;;;;;;5018891;28;20218;-77
2021/11/20 10:03:42;;;;;;;9.23;5.07;;;9.80;99.90;;;;;;5024980;28;20464;-78
2021/11/20 10:06:12;;;;;;;9.80;5.30;;;9.80;99.90;;;;;;5022172;28;20304;-78
2021/11/20 10:08:41;;;;;;;12.85;5.50;;;9.80;99.90;;;;;;5027938;28;20552;-78
2021/11/20 10:11:32;;;;;;;8.00;4.67;;;9.90;99.90;;;;;;5023373;28;20212;-79
2021/11/20 10:14:07;;;;;;;8.30;5.53;;;9.90;99.90;;;;;;5018677;28;20520;-78
2021/11/20 10:16:43;;;;;;;6.20;3.97;;;9.90;99.90;;;;;;5018615;28;20428;-78
2021/11/20 10:19:14;;;;;;;10.02;4.60;;;9.80;99.90;;;;;;5019891;28;20243;-78
2021/11/20 10:21:45;;;;;;;8.45;4.25;;;9.70;99.90;;;;;;5019280;28;20208;-77
2021/11/20 10:24:27;;;;;;;6.13;3.60;;;9.70;99.90;;;;;;5017134;28;20191;-78
2021/11/20 10:27:32;;;;;;;9.10;4.82;;;9.70;99.90;;;;;;5016723;28;20224;-78
2021/11/20 10:30:25;;;;;;;8.95;4.00;;;9.70;99.90;;;;;;5018080;28;20232;-80
2021/11/20 10:32:56;;;;;;;7.00;4.28;;;9.70;99.90;;;;;;5016992;28;20198;-78
2021/11/20 10:35:27;;;;;;;6.93;4.70;;;9.70;99.90;;;;;;5017658;28;20202;-78
2021/11/20 10:37:56;;;;;;;7.60;4.40;;;9.80;99.90;;;;;;5015441;28;20224;-78
2021/11/20 10:40:36;;;;;;;9.80;5.00;;;9.50;99.90;;;;;;5015835;28;20562;-78
2021/11/20 10:43:09;;;;;;;10.15;4.57;;;9.50;99.90;;;;;;5016001;28;20964;-78
2021/11/20 10:45:45;;;;;;;8.80;5.07;;;9.60;99.90;;;;;;5017744;28;20249;-79
2021/11/20 10:48:25;;;;;;;13.20;5.95;;;9.60;99.90;;;;;;5017266;28;20230;-78
2021/11/20 10:51:11;;;;;;;10.67;5.20;;;9.70;99.90;;;;;;5019939;28;20193;-80
2021/11/20 10:53:58;;;;;;;11.63;5.88;;;9.70;99.90;;;;;;5018123;28;20428;-79
2021/11/20 10:56:41;;;;;;;7.50;4.30;;;9.80;99.90;;;;;;5017194;28;20560;-78
2021/11/20 10:59:44;;;;;;;6.90;4.20;;;9.70;99.90;;;;;;5016725;28;20240;-79
2021/11/20 11:02:49;;;;;;;6.93;3.63;;;9.80;99.90;;;;;;5016824;28;20202;-78
2021/11/20 11:06:07;;;;;;;6.80;4.20;;;9.70;99.90;;;;;;5016895;28;20233;-78
2021/11/20 11:08:38;;;;;;;5.50;3.60;;;9.80;99.90;;;;;;4956171;28;20497;-79
2021/11/20 11:11:15;;;;;;;5.88;3.38;;;9.80;99.90;;;;;;5005133;28;20464;-79
2021/11/20 11:14:10;;;;;;;9.20;3.85;;;9.80;99.90;;;;;;5017677;28;20193;-78
2021/11/20 11:16:41;;;;;;;8.30;4.15;;;9.70;99.90;;;;;;5017334;28;20190;-79
2021/11/20 11:19:26;;;;;;;18.60;10.10;;;9.80;99.90;;;;;;5019103;28;20276;-79
2021/11/20 11:21:58;;;;;;;7.70;4.27;;;9.90;99.90;;;;;;5018219;28;20445;-78
2021/11/20 11:24:52;;;;;;;6.17;3.63;;;10.00;99.90;;;;;;5018193;28;20891;-78
2021/11/20 11:27:24;;;;;;;7.10;3.97;;;10.20;99.90;;;;;;5015954;28;20520;-78
2021/11/20 11:29:59;;;;;;;6.70;3.80;;;10.40;99.90;;;;;;5016698;28;20930;-78
2021/11/20 11:32:29;;;;;;;5.80;3.33;;;10.20;99.90;;;;;;5016258;28;20439;-78
2021/11/20 11:34:59;;;;;;;6.70;3.95;;;10.10;99.90;;;;;;5015711;28;20449;-79
2021/11/20 11:37:35;;;;;;;7.00;4.60;;;10.00;99.90;;;;;;5017150;28;20206;-78
2021/11/20 11:40:17;;;;;;;7.07;4.90;;;10.00;99.90;;;;;;5019734;28;20510;-78
2021/11/20 11:42:53;;;;;;;9.50;3.83;;;10.00;99.90;;;;;;5016879;28;20195;-78
2021/11/20 11:46:00;;;;;;;6.97;4.00;;;10.30;99.90;;;;;;5014469;28;20436;-81
2021/11/20 11:49:01;;;;;;;9.77;4.23;;;10.30;99.90;;;;;;5017459;28;20248;-78
2021/11/20 11:51:39;;;;;;;7.90;5.00;;;10.00;99.90;;;;;;4985389;28;20464;-80
2021/11/20 11:54:21;;;;;;;11.83;5.40;;;10.00;99.90;;;;;;5014934;28;20779;-83
2021/11/20 11:57:01;;;;;;;10.30;6.00;;;10.00;99.90;;;;;;5015583;28;20777;-80
2021/11/20 11:59:49;;;;;;;12.03;6.10;;;9.90;99.90;;;;;;5015714;28;20473;-78
2021/11/20 12:02:20;;;;;;;8.00;5.10;;;10.10;99.90;;;;;;5016574;28;20429;-78
2021/11/20 12:04:51;;;;;;;9.52;6.18;;;10.10;99.90;;;;;;5016232;28;20463;-80
2021/11/20 12:07:47;;;;;;;12.00;5.80;;;10.10;99.90;;;;;;5016027;28;20222;-78
2021/11/20 12:10:33;;;;;;;12.60;5.95;;;10.10;99.90;;;;;;5016471;28;20469;-77
2021/11/20 12:13:04;;;;;;;7.63;5.10;;;10.10;99.90;;;;;;5016086;28;20202;-79
2021/11/20 12:15:37;;;;;;;9.57;5.97;;;10.10;99.90;;;;;;5016075;28;20193;-78
2021/11/20 12:18:15;;;;;;;9.40;5.97;;;10.00;99.90;;;;;;5019487;28;20480;-78
2021/11/20 12:20:52;;;;;;;9.83;5.37;;;10.20;99.90;;;;;;5018927;28;20448;-78
2021/11/20 12:23:26;;;;;;;10.88;5.70;;;10.10;99.90;;;;;;5017751;28;20503;-78
2021/11/20 12:26:08;;;;;;;13.17;6.00;;;10.00;99.90;;;;;;5017244;28;20651;-78
2021/11/20 12:28:39;;;;;;;10.87;6.80;;;10.00;99.90;;;;;;5017209;28;20475;-78
2021/11/20 12:31:29;;;;;;;10.47;6.03;;;10.10;99.90;;;;;;5018814;28;20456;-78
2021/11/20 12:34:06;;;;;;;11.82;6.55;;;10.10;99.90;;;;;;4989207;28;20460;-78
2021/11/20 12:36:53;;;;;;;9.93;6.90;;;10.20;99.90;;;;;;5019278;28;20280;-78
2021/11/20 12:39:49;;;;;;;10.80;6.80;;;10.20;99.90;;;;;;5020368;28;20720;-78
2021/11/20 12:42:47;;;;;;;10.17;6.77;;;10.30;99.90;;;;;;5018104;28;20449;-81
2021/11/20 12:45:41;;;;;;;10.87;7.10;;;10.30;99.90;;;;;;5018304;28;20446;-78
2021/11/20 12:48:19;;;;;;;10.50;6.67;;;10.30;99.90;;;;;;5005754;28;20476;-77
2021/11/20 12:50:55;;;;;;;9.60;6.87;;;10.40;99.90;;;;;;5018843;28;20412;-79
2021/11/20 12:53:27;;;;;;;9.50;6.10;;;10.30;99.90;;;;;;5021525;28;20447;-79
2021/11/20 12:56:28;;;;;;;16.33;10.85;;;10.20;99.90;;;;;;5023854;28;20197;-80
2021/11/20 12:58:57;;;;;;;13.20;8.68;;;10.10;99.90;;;;;;5020827;28;20248;-79
2021/11/20 13:01:41;;;;;;;12.93;7.50;;;9.90;99.90;;;;;;5021104;28;20561;-78
2021/11/20 13:04:14;;;;;;;11.20;7.35;;;9.70;99.90;;;;;;5031411;28;20258;-78